Terminal Aerodrome Forecast
Issued by NWS Kansas City/Pleasant Hill, MO

Home | Current Version | Previous Version | Text Only | Print | Product List | Glossary On
Versions: 1 2 3 4 5 6 7 8 9 10 11 12 13 14 15
000
FTUS43 KEAX 310911 AAA
TAFMCI
TAF AMD
KMCI 310911Z 3109/0106 VRB05KT P6SM BKN250
      TEMPO 3111/3113 5SM BR
     FM311400 18006KT P6SM VCSH BKN040
     FM312100 18005KT P6SM SHRA VCTS SCT025CB BKN035
     FM010200 27005KT P6SM SCT120 SCT200=

USA.gov is the U.S. government's official web portal to all federal, state and local government web resources and services.